Time;durP1;ratioP1;P1;durP2;ratioP2;P2;SDS_P1;SDS_P2;PMS_P1;PMS_P2;Temp;Humidity;BMP_temperature;BMP_pressure;BME280_temperature;BME280_humidity;BME280_pressure;Samples;Min_cycle;Max_cycle;Signal;HPM_P1;HPM_P2
2022/10/24 00:01:26;;;;;;;7.95;4.40;;;;;;;12.85;74.51;101445.39;1944831;74;21023;-48
2022/10/24 00:03:54;;;;;;;7.92;4.42;;;;;;;12.79;74.54;101438.55;1944210;74;21015;-52
2022/10/24 00:06:23;;;;;;;7.72;4.40;;;;;;;12.72;74.47;101441.87;1944698;74;21098;-56
2022/10/24 00:08:52;;;;;;;5.62;4.00;;;;;;;12.66;74.33;101439.46;1919375;73;21051;-55
2022/10/24 00:11:23;;;;;;;8.13;4.47;;;;;;;12.59;74.37;101443.71;1932355;73;21105;-59
2022/10/24 00:13:53;;;;;;;6.30;4.10;;;;;;;12.53;74.61;101443.48;1920593;74;21113;-61
2022/10/24 00:16:23;;;;;;;9.15;4.05;;;;;;;12.51;75.11;101450.59;1911058;75;21105;-59
2022/10/24 00:18:51;;;;;;;8.68;5.20;;;;;;;12.53;75.34;101444.33;1910975;75;21034;-59
2022/10/24 00:21:20;;;;;;;6.55;3.95;;;;;;;12.50;75.97;101445.75;1910938;75;21121;-59
2022/10/24 00:23:49;;;;;;;7.15;4.42;;;;;;;12.47;76.11;101445.88;1911055;75;21062;-59
2022/10/24 00:26:18;;;;;;;8.03;4.53;;;;;;;12.52;75.90;101441.30;1913263;74;21101;-59
2022/10/24 00:28:47;;;;;;;7.67;5.37;;;;;;;12.55;75.80;101435.03;1945054;74;21059;-60
2022/10/24 00:31:18;;;;;;;7.72;3.98;;;;;;;12.50;75.92;101429.05;1944943;74;21036;-60
2022/10/24 00:33:47;;;;;;;9.65;4.10;;;;;;;12.41;76.15;101440.80;1944825;73;21082;-60
2022/10/24 00:36:19;;;;;;;6.53;3.75;;;;;;;12.35;75.86;101429.99;1944522;73;21450;-60
2022/10/24 00:38:48;;;;;;;6.78;3.60;;;;;;;12.32;75.77;101431.44;1914559;74;21047;-60
2022/10/24 00:41:20;;;;;;;7.62;3.58;;;;;;;12.33;75.69;101430.98;1909435;75;21462;-63
2022/10/24 00:43:49;;;;;;;8.38;4.45;;;;;;;12.35;75.81;101433.09;1902547;74;21103;-63
2022/10/24 00:46:19;;;;;;;7.35;4.20;;;;;;;12.36;75.79;101431.73;1899419;75;21115;-63
2022/10/24 00:48:53;;;;;;;6.28;3.92;;;;;;;12.40;75.86;101435.59;1918579;74;21101;-62
2022/10/24 00:51:28;;;;;;;6.28;4.00;;;;;;;12.42;75.90;101440.36;1932825;74;21001;-63
2022/10/24 00:54:03;;;;;;;8.73;3.65;;;;;;;12.48;75.78;101442.77;1934503;74;21051;-62
2022/10/24 00:56:34;;;;;;;8.38;4.72;;;;;;;12.51;75.71;101435.59;1934576;74;21459;-58
2022/10/24 00:59:06;;;;;;;8.35;4.60;;;;;;;12.54;75.80;101433.30;1910110;74;21129;-59
2022/10/24 01:01:35;;;;;;;7.62;4.65;;;;;;;12.53;76.06;101432.91;1899615;75;21095;-59
2022/10/24 01:04:04;;;;;;;8.20;4.33;;;;;;;12.51;76.22;101435.59;1899571;74;21552;-60
2022/10/24 01:06:48;;;;;;;8.40;4.72;;;;;;;12.50;76.25;101436.97;1899608;75;21103;-64
2022/10/24 01:09:17;;;;;;;;;;;;;;;12.52;76.09;101443.06;1918448;74;21650;-66
2022/10/24 01:11:49;;;;;;;6.70;3.95;;;;;;;12.49;76.24;101441.40;1901344;75;20115;-61
2022/10/24 01:14:21;;;;;;;8.00;3.62;;;;;;;12.48;76.08;101449.38;1899851;75;21041;-61
2022/10/24 01:16:52;;;;;;;6.33;3.80;;;;;;;12.45;76.09;101440.23;1901227;75;21043;-61
2022/10/24 01:19:49;;;;;;;7.85;4.90;;;;;;;12.43;76.16;101439.42;1908126;74;21035;-63
2022/10/24 01:22:21;;;;;;;8.30;4.62;;;;;;;12.41;76.19;101439.94;1934583;74;21024;-60
2022/10/24 01:24:55;;;;;;;8.30;4.05;;;;;;;12.41;76.29;101445.22;1930155;74;21050;-60
2022/10/24 01:27:43;;;;;;;9.50;4.75;;;;;;;12.41;76.38;101437.30;1900559;74;21611;-63
2022/10/24 01:30:17;;;;;;;9.18;4.45;;;;;;;12.40;76.64;101438.23;1901241;75;21040;-58
2022/10/24 01:32:49;;;;;;;10.48;5.12;;;;;;;12.39;76.77;101436.49;1902370;74;21145;-63
2022/10/24 01:35:39;;;;;;;8.88;4.33;;;;;;;12.39;77.04;101431.21;1914736;74;21055;-59
2022/10/24 01:38:18;;;;;;;9.38;4.03;;;;;;;12.39;77.01;101423.29;1879237;76;21054;-59
2022/10/24 01:40:52;;;;;;;10.70;4.42;;;;;;;12.39;77.10;101431.21;1879308;76;21039;-54
2022/10/24 01:43:27;;;;;;;7.72;4.42;;;;;;;12.41;77.07;101430.23;1886548;74;21082;-58
2022/10/24 01:45:58;;;;;;;11.18;4.92;;;;;;;12.43;77.28;101436.78;1931184;74;21046;-58
2022/10/24 01:48:30;;;;;;;10.65;4.67;;;;;;;12.44;77.43;101438.05;1931650;73;21011;-54
2022/10/24 01:51:02;;;;;;;9.53;4.42;;;;;;;12.46;77.39;101437.54;1932471;74;21100;-54
2022/10/24 01:53:31;;;;;;;9.00;4.35;;;;;;;12.48;77.14;101439.66;1932109;74;21054;-57
2022/10/24 01:56:00;;;;;;;9.40;4.28;;;;;;;12.51;76.96;101437.39;1922165;74;21519;-57
2022/10/24 01:58:29;;;;;;;9.48;4.78;;;;;;;12.52;76.94;101439.09;1948739;73;21560;-59
2022/10/24 02:01:01;;;;;;;10.13;4.42;;;;;;;12.54;76.85;101441.22;1948500;74;21536;-57
2022/10/24 02:03:36;;;;;;;9.60;4.40;;;;;;;12.56;76.75;101449.98;1931204;74;21063;-58
2022/10/24 02:06:10;;;;;;;10.00;4.65;;;;;;;12.56;76.71;101455.27;1913413;74;21541;-60
2022/10/24 02:08:42;;;;;;;9.93;4.50;;;;;;;12.56;76.72;101455.27;1913105;75;21058;-58
2022/10/24 02:11:11;;;;;;;11.30;5.50;;;;;;;12.55;76.80;101444.28;1938326;74;20988;-58
2022/10/24 02:14:04;;;;;;;11.75;5.58;;;;;;;12.52;77.40;101443.95;1911185;74;21470;-60
2022/10/24 02:16:34;;;;;;;10.20;4.83;;;;;;;12.49;77.87;101434.80;1930264;74;21046;-59
2022/10/24 02:19:04;;;;;;;12.25;5.97;;;;;;;12.51;77.63;101449.27;1914598;75;21039;-58
2022/10/24 02:21:52;;;;;;;12.18;4.85;;;;;;;12.54;77.60;101450.03;1913812;74;21102;-55
2022/10/24 02:24:26;;;;;;;12.63;4.83;;;;;;;12.58;77.55;101445.50;1914441;75;21140;-59
2022/10/24 02:27:06;;;;;;;12.53;4.33;;;;;;;12.63;77.40;101450.60;1913363;75;21631;-58
2022/10/24 02:29:50;;;;;;;14.98;4.80;;;;;;;12.67;77.37;101462.34;1914478;75;21112;-57
2022/10/24 02:32:40;;;;;;;8.55;4.75;;;;;;;12.71;77.42;101456.48;1913341;75;21037;-59
2022/10/24 02:35:11;;;;;;;11.30;4.78;;;;;;;12.75;77.43;101468.66;1901144;74;21060;-57
2022/10/24 02:37:43;;;;;;;10.58;5.28;;;;;;;12.80;77.52;101463.19;1932502;74;21469;-57
2022/10/24 02:40:14;;;;;;;11.18;5.85;;;;;;;12.81;77.92;101463.14;1932437;74;21062;-57
2022/10/24 02:42:46;;;;;;;10.25;5.17;;;;;;;12.81;77.92;101461.82;1932500;74;21015;-58
2022/10/24 02:45:17;;;;;;;11.00;5.17;;;;;;;12.84;77.72;101464.36;1905526;73;21074;-58
2022/10/24 02:47:47;;;;;;;11.83;5.33;;;;;;;12.87;77.65;101465.58;1923857;74;21144;-60
2022/10/24 02:50:16;;;;;;;11.18;6.20;;;;;;;12.90;77.77;101469.88;1923833;74;21512;-57
2022/10/24 02:52:45;;;;;;;12.88;6.28;;;;;;;12.90;78.05;101464.59;1923863;74;21887;-57
2022/10/24 02:55:14;;;;;;;10.75;5.58;;;;;;;12.89;78.26;101471.66;1924451;73;21042;-58
2022/10/24 02:57:43;;;;;;;12.20;5.85;;;;;;;12.86;78.65;101474.41;1923807;74;21124;-57
2022/10/24 03:00:12;;;;;;;10.63;5.40;;;;;;;12.85;78.74;101485.89;1923765;74;21101;-56
2022/10/24 03:02:41;;;;;;;8.78;4.97;;;;;;;12.87;78.68;101489.80;1926042;73;21039;-59
2022/10/24 03:05:10;;;;;;;12.05;5.60;;;;;;;12.86;78.66;101488.95;1924097;73;21112;-57
2022/10/24 03:07:39;;;;;;;10.65;5.78;;;;;;;12.87;78.86;101493.77;1923833;74;21128;-57
2022/10/24 03:10:08;;;;;;;13.48;5.72;;;;;;;12.86;78.73;101496.88;1935651;73;20995;-57
2022/10/24 03:12:37;;;;;;;9.90;5.83;;;;;;;12.87;78.80;101496.41;1958458;73;21015;-60
2022/10/24 03:15:06;;;;;;;13.58;7.47;;;;;;;12.85;78.69;101504.39;1923751;74;21163;-54
2022/10/24 03:17:35;;;;;;;10.80;6.42;;;;;;;12.84;78.93;101501.83;1923853;74;21026;-59
2022/10/24 03:20:04;;;;;;;13.93;6.35;;;;;;;12.82;79.11;101500.99;1923779;74;21066;-57
2022/10/24 03:22:33;;;;;;;14.03;6.60;;;;;;;12.81;79.12;101494.00;1923994;74;21018;-58
2022/10/24 03:25:02;;;;;;;10.58;6.65;;;;;;;12.79;79.49;101495.84;1926244;73;21031;-59
2022/10/24 03:27:32;;;;;;;10.90;6.15;;;;;;;12.75;79.83;101495.94;1923833;74;21092;-57
2022/10/24 03:30:02;;;;;;;10.48;5.90;;;;;;;12.75;79.94;101499.91;1923940;74;21053;-58
2022/10/24 03:32:32;;;;;;;9.20;5.67;;;;;;;12.77;79.84;101495.03;1929522;73;21034;-58
2022/10/24 03:35:01;;;;;;;10.70;6.05;;;;;;;12.78;79.96;101500.27;1921837;73;21121;-57
2022/10/24 03:37:30;;;;;;;12.37;5.60;;;;;;;12.80;79.83;101513.41;1919181;75;21108;-56
2022/10/24 03:39:59;;;;;;;9.83;4.50;;;;;;;12.83;79.60;101514.16;1919229;75;21478;-57
2022/10/24 03:42:28;;;;;;;10.80;5.95;;;;;;;12.86;79.38;101518.02;1929441;73;21046;-58
2022/10/24 03:44:57;;;;;;;10.25;5.45;;;;;;;12.87;79.20;101518.44;1920377;73;21118;-57
2022/10/24 03:47:25;;;;;;;12.90;5.87;;;;;;;12.88;79.24;101517.97;1910940;75;21559;-59
2022/10/24 03:49:54;;;;;;;13.05;5.70;;;;;;;12.89;79.14;101521.00;1913178;73;21543;-49
2022/10/24 03:52:23;;;;;;;13.38;6.42;;;;;;;12.91;78.98;101518.72;1922910;74;21117;-54
2022/10/24 03:54:52;;;;;;;12.95;5.60;;;;;;;12.95;78.91;101512.87;1911123;75;21117;-51
2022/10/24 03:57:20;;;;;;;9.68;5.20;;;;;;;12.96;78.93;101513.25;1945490;73;21140;-57
2022/10/24 03:59:49;;;;;;;11.60;5.22;;;;;;;12.97;78.91;101513.67;1927980;73;21033;-49
2022/10/24 04:02:18;;;;;;;10.05;5.45;;;;;;;12.99;78.90;101511.83;1944698;74;21066;-54
2022/10/24 04:04:46;;;;;;;11.95;4.92;;;;;;;13.00;78.81;101516.18;1932838;74;21124;-55
2022/10/24 04:07:15;;;;;;;12.35;6.22;;;;;;;13.02;78.66;101514.38;1922033;73;21110;-53
2022/10/24 04:09:45;;;;;;;11.45;5.65;;;;;;;13.03;78.52;101526.65;1922397;73;21035;-51
2022/10/24 04:12:14;;;;;;;14.47;7.03;;;;;;;13.04;78.43;101523.10;1944878;74;21059;-52
2022/10/24 04:14:42;;;;;;;16.67;7.45;;;;;;;13.06;78.35;101534.95;1942873;74;21106;-53
2022/10/24 04:17:11;;;;;;;16.17;7.35;;;;;;;13.07;78.24;101538.83;1933765;73;21112;-54
2022/10/24 04:19:40;;;;;;;16.45;6.72;;;;;;;13.08;78.13;101544.54;1924474;73;21026;-52
2022/10/24 04:22:09;;;;;;;12.45;5.75;;;;;;;13.09;78.00;101533.49;1954691;73;21105;-62
2022/10/24 04:24:38;;;;;;;16.50;7.45;;;;;;;13.07;77.78;101538.83;1954660;73;21031;-57
2022/10/24 04:27:08;;;;;;;15.45;7.33;;;;;;;13.06;77.68;101543.73;1954550;73;21593;-60
2022/10/24 04:29:36;;;;;;;13.90;6.50;;;;;;;13.05;77.58;101543.31;1941271;73;21500;-62
2022/10/24 04:32:05;;;;;;;13.28;6.90;;;;;;;13.05;77.47;101540.67;1954824;73;21093;-59
2022/10/24 04:34:37;;;;;;;16.50;7.45;;;;;;;13.06;77.37;101544.20;1954698;73;21031;-60
2022/10/24 04:37:06;;;;;;;12.40;6.45;;;;;;;13.10;77.30;101553.27;1954263;73;21089;-60
2022/10/24 04:39:34;;;;;;;15.25;6.90;;;;;;;13.14;77.18;101548.27;1954537;73;21055;-61
2022/10/24 04:42:03;;;;;;;16.32;7.00;;;;;;;13.18;77.03;101550.81;1942342;73;21023;-59
2022/10/24 04:44:32;;;;;;;15.60;6.70;;;;;;;13.20;76.89;101548.97;1944920;74;21498;-58
2022/10/24 04:47:01;;;;;;;16.50;6.47;;;;;;;13.25;76.80;101554.95;1935808;73;21188;-58
2022/10/24 04:49:30;;;;;;;16.55;7.83;;;;;;;13.34;76.70;101559.08;1934472;74;21055;-57
2022/10/24 04:51:59;;;;;;;15.68;6.47;;;;;;;13.38;76.51;101568.15;1912077;74;21044;-60
2022/10/24 04:54:27;;;;;;;13.45;6.83;;;;;;;13.43;76.41;101570.64;1899309;75;21094;-58
2022/10/24 04:56:56;;;;;;;13.55;6.70;;;;;;;13.48;76.24;101578.80;1899415;75;21466;-61
2022/10/24 04:59:25;;;;;;;15.90;6.17;;;;;;;13.50;75.94;101577.39;1899301;75;21114;-59
2022/10/24 05:01:54;;;;;;;13.75;6.55;;;;;;;13.55;75.91;101593.97;1909889;74;21109;-59
2022/10/24 05:04:23;;;;;;;11.08;5.08;;;;;;;13.55;75.64;101589.14;1933700;74;21055;-59
2022/10/24 05:06:52;;;;;;;13.48;6.20;;;;;;;13.55;75.52;101591.79;1934182;74;21093;-61
2022/10/24 05:09:21;;;;;;;11.85;5.25;;;;;;;13.56;75.39;101599.67;1933532;74;21031;-60
2022/10/24 05:11:49;;;;;;;16.93;6.05;;;;;;;13.59;75.34;101602.65;1906912;74;21129;-59
2022/10/24 05:14:18;;;;;;;8.95;5.30;;;;;;;13.59;75.26;101611.44;1934601;74;21064;-57
2022/10/24 05:16:48;;;;;;;11.25;5.35;;;;;;;13.62;75.16;101614.45;1934475;74;21071;-60
2022/10/24 05:19:18;;;;;;;12.05;5.62;;;;;;;13.63;74.94;101614.84;1934297;74;21487;-59
2022/10/24 05:21:47;;;;;;;12.30;6.25;;;;;;;13.64;74.60;101618.75;1927336;74;21093;-57
2022/10/24 05:24:16;;;;;;;11.75;5.47;;;;;;;13.69;74.41;101626.53;1903665;74;21051;-58
2022/10/24 05:26:44;;;;;;;13.05;6.15;;;;;;;13.69;74.24;101624.74;1910600;74;21055;-56
2022/10/24 05:29:13;;;;;;;7.70;4.40;;;;;;;13.70;74.10;101628.23;1934438;74;21019;-57
2022/10/24 05:31:42;;;;;;;11.93;5.97;;;;;;;13.71;73.96;101631.30;1921495;74;21033;-57
2022/10/24 05:34:10;;;;;;;9.53;4.47;;;;;;;13.72;73.90;101636.98;1901199;75;21029;-59
2022/10/24 05:36:39;;;;;;;10.65;5.05;;;;;;;13.71;73.79;101644.54;1907936;74;21050;-59
2022/10/24 05:39:08;;;;;;;10.03;4.50;;;;;;;13.69;73.80;101635.33;1923404;74;21091;-59
2022/10/24 05:41:37;;;;;;;7.90;4.70;;;;;;;13.70;73.76;101639.72;1933827;74;21044;-59
2022/10/24 05:44:05;;;;;;;9.23;4.45;;;;;;;13.68;73.65;101648.61;1901619;74;21032;-62
2022/10/24 05:46:34;;;;;;;11.35;4.67;;;;;;;13.65;73.63;101650.08;1919654;73;21089;-60
2022/10/24 05:49:03;;;;;;;8.93;4.87;;;;;;;13.60;73.57;101648.05;1901100;75;21084;-58
2022/10/24 05:51:32;;;;;;;11.85;5.78;;;;;;;13.60;73.53;101655.98;1916832;74;21454;-57
2022/10/24 05:54:01;;;;;;;10.85;5.25;;;;;;;13.65;73.55;101658.02;1922706;74;21003;-59
2022/10/24 05:56:33;;;;;;;11.38;5.58;;;;;;;13.73;73.48;101655.93;1901272;75;21135;-59
2022/10/24 05:59:02;;;;;;;9.03;4.90;;;;;;;13.85;73.45;101655.47;1901305;75;21021;-58
2022/10/24 06:01:31;;;;;;;14.00;5.60;;;;;;;13.98;73.34;101657.63;1901415;75;21041;-58
2022/10/24 06:04:00;;;;;;;9.10;5.10;;;;;;;14.14;73.22;101657.44;1924143;74;21122;-56
2022/10/24 06:06:29;;;;;;;9.78;4.72;;;;;;;14.25;72.92;101657.02;1928804;74;21118;-58
2022/10/24 06:08:58;;;;;;;11.22;5.08;;;;;;;14.24;72.47;101662.78;1933891;74;21087;-59
2022/10/24 06:11:27;;;;;;;9.00;4.53;;;;;;;14.21;72.25;101660.72;1904670;74;21047;-57
2022/10/24 06:13:55;;;;;;;11.43;5.05;;;;;;;14.19;72.19;101663.42;1901331;75;21035;-57
2022/10/24 06:16:26;;;;;;;10.53;5.35;;;;;;;14.24;72.28;101668.55;1901186;75;21068;-57
2022/10/24 06:18:55;;;;;;;10.18;4.58;;;;;;;14.30;72.11;101660.35;1889938;74;21026;-58
2022/10/24 06:21:24;;;;;;;12.13;6.08;;;;;;;14.32;72.07;101662.94;1879260;76;21140;-58
2022/10/24 06:23:53;;;;;;;8.80;3.80;;;;;;;14.38;72.06;101670.64;1879235;76;21148;-58
2022/10/24 06:26:22;;;;;;;10.48;4.90;;;;;;;14.42;71.82;101661.20;1879458;76;21121;-58
2022/10/24 06:28:51;;;;;;;9.78;5.12;;;;;;;14.45;71.76;101660.20;1882201;74;21124;-58
2022/10/24 06:31:20;;;;;;;8.78;4.17;;;;;;;14.56;71.54;101661.94;1879359;76;21121;-58
2022/10/24 06:33:49;;;;;;;9.23;4.00;;;;;;;14.96;70.63;101658.98;1879322;76;21459;-57
2022/10/24 06:36:17;;;;;;;11.65;4.95;;;;;;;15.15;69.94;101668.33;1879202;76;21035;-62
2022/10/24 06:38:46;;;;;;;4.53;2.95;;;;;;;15.21;69.78;101665.39;1886453;74;21260;-61
2022/10/24 06:41:16;;;;;;;9.10;3.50;;;;;;;15.15;69.82;101668.33;1901325;75;21101;-61
2022/10/24 06:43:44;;;;;;;7.17;3.45;;;;;;;14.99;69.63;101681.37;1901315;75;21032;-56
2022/10/24 06:46:16;;;;;;;7.72;3.72;;;;;;;14.77;69.51;101677.91;1901344;75;21019;-59
2022/10/24 06:48:45;;;;;;;9.03;3.67;;;;;;;14.60;69.58;101676.81;1912364;73;21054;-58
2022/10/24 06:51:15;;;;;;;7.70;3.77;;;;;;;14.51;69.67;101677.16;1933913;74;21089;-50
2022/10/24 06:53:44;;;;;;;6.70;3.12;;;;;;;14.42;69.49;101681.06;1916992;74;21050;-57
2022/10/24 06:56:13;;;;;;;5.30;2.50;;;;;;;14.33;69.60;101676.58;1907291;75;21359;-57
2022/10/24 06:58:42;;;;;;;6.08;3.30;;;;;;;14.23;69.46;101678.27;1907287;75;21031;-56
2022/10/24 07:01:22;;;;;;;5.83;2.58;;;;;;;14.18;69.63;101685.52;1907221;75;21090;-57
2022/10/24 07:03:51;;;;;;;6.35;3.08;;;;;;;14.20;69.61;101687.67;1903760;74;21067;-57
2022/10/24 07:06:29;;;;;;;6.12;2.52;;;;;;;14.36;69.21;101680.44;1901402;75;21008;-59
2022/10/24 07:09:00;;;;;;;5.28;2.27;;;;;;;14.61;68.89;101685.18;1901199;75;21055;-61
2022/10/24 07:11:29;;;;;;;5.60;2.50;;;;;;;14.89;68.14;101685.84;1917966;75;21119;-61
2022/10/24 07:13:58;;;;;;;3.77;2.00;;;;;;;15.11;67.58;101689.77;1896706;74;21003;-59
2022/10/24 07:19:16;;;;;;;5.28;2.40;;;;;;;15.01;67.24;101698.11;1876623;76;21055;-58
2022/10/24 07:21:44;;;;;;;5.08;2.08;;;;;;;14.90;67.31;101687.06;1876557;76;21075;-58
2022/10/24 07:24:13;;;;;;;4.72;2.20;;;;;;;14.72;67.03;101703.30;1878436;75;21148;-60
2022/10/24 07:26:42;;;;;;;4.95;2.08;;;;;;;14.57;67.33;101692.86;1857375;77;21557;-58
2022/10/24 07:29:11;;;;;;;7.12;2.70;;;;;;;14.48;67.49;101698.50;1892307;76;21078;-58
2022/10/24 07:31:40;;;;;;;4.40;1.77;;;;;;;14.37;67.43;101706.02;1875253;76;21088;-60
2022/10/24 07:34:10;;;;;;;4.72;2.60;;;;;;;14.31;67.55;101708.89;1829164;78;21046;-60
2022/10/24 07:36:38;;;;;;;3.98;2.33;;;;;;;14.20;67.29;101704.89;1878409;76;21034;-60
2022/10/24 07:39:07;;;;;;;4.12;2.20;;;;;;;14.08;66.92;101705.36;1894578;75;21135;-59
2022/10/24 07:41:40;;;;;;;5.85;2.33;;;;;;;14.00;67.00;101706.98;1865623;77;21070;-59
2022/10/24 07:44:10;;;;;;;4.87;2.50;;;;;;;13.96;67.17;101716.41;1899671;75;21053;-59
2022/10/24 07:46:40;;;;;;;3.80;2.10;;;;;;;13.94;67.30;101712.95;1865591;77;21480;-58
2022/10/24 07:49:09;;;;;;;5.25;2.67;;;;;;;13.89;67.17;101717.97;1895640;75;21055;-59
2022/10/24 07:51:38;;;;;;;3.98;1.95;;;;;;;13.87;67.17;101718.95;1892505;74;21101;-59
2022/10/24 07:54:07;;;;;;;4.03;2.45;;;;;;;13.82;67.00;101715.14;1859044;77;21023;-61
2022/10/24 07:56:36;;;;;;;4.22;2.40;;;;;;;13.80;67.11;101724.92;1893646;75;21144;-59
2022/10/24 07:59:05;;;;;;;5.83;2.60;;;;;;;13.80;67.22;101726.72;1843108;77;21075;-58
2022/10/24 08:01:33;;;;;;;3.98;2.17;;;;;;;13.80;67.27;101734.66;1888682;75;21092;-60
2022/10/24 08:04:02;;;;;;;4.40;2.30;;;;;;;13.77;67.23;101734.30;1892034;76;21019;-60
2022/10/24 08:06:31;;;;;;;5.75;2.80;;;;;;;13.75;67.29;101732.16;1860611;77;21051;-60
2022/10/24 08:09:00;;;;;;;4.60;2.47;;;;;;;13.76;67.37;101735.23;1901834;75;21514;-59
2022/10/24 08:11:31;;;;;;;5.25;2.30;;;;;;;13.75;67.43;101742.75;1860578;77;21002;-59
2022/10/24 08:14:03;;;;;;;5.05;2.70;;;;;;;13.76;67.48;101739.20;1886518;75;21109;-62
2022/10/24 08:16:30;;;;;;;5.03;2.62;;;;;;;13.76;67.46;101751.11;1932172;74;21176;-61
2022/10/24 08:18:59;;;;;;;4.55;2.77;;;;;;;13.76;67.51;101759.05;1920150;74;21074;-61
2022/10/24 08:21:30;;;;;;;5.22;2.67;;;;;;;13.74;67.49;101763.98;1892009;76;21116;-62
2022/10/24 08:23:58;;;;;;;6.05;2.80;;;;;;;13.68;67.52;101759.77;1892045;75;21050;-62
2022/10/24 08:26:27;;;;;;;5.42;2.83;;;;;;;13.64;67.57;101757.69;1891920;76;21019;-62
2022/10/24 08:28:56;;;;;;;6.40;2.75;;;;;;;13.64;67.67;101763.45;1891762;76;21070;-64
2022/10/24 08:31:26;;;;;;;6.30;2.92;;;;;;;13.61;67.72;101755.61;1891894;76;21481;-60
2022/10/24 08:33:56;;;;;;;7.30;2.80;;;;;;;13.58;67.72;101761.89;1891974;76;21495;-61
2022/10/24 08:36:30;;;;;;;6.95;3.40;;;;;;;13.56;67.73;101766.38;1891936;75;21531;-60
2022/10/24 08:39:00;;;;;;;4.95;1.77;;;;;;;13.56;67.76;101764.20;1891835;76;21050;-60
2022/10/24 08:41:37;;;;;;;4.62;2.40;;;;;;;13.53;67.76;101759.86;1891756;76;21477;-61
2022/10/24 08:44:13;;;;;;;5.60;2.72;;;;;;;13.46;67.55;101763.20;1891912;76;21136;-60
2022/10/24 08:47:09;;;;;;;5.33;3.00;;;;;;;13.43;67.53;101763.76;1871961;75;21116;-60
2022/10/24 08:50:00;;;;;;;6.28;3.20;;;;;;;13.43;67.68;101759.79;1891918;76;21074;-60
2022/10/24 08:52:34;;;;;;;5.17;3.27;;;;;;;13.43;67.63;101763.76;1891353;76;21071;-60
2022/10/24 08:55:21;;;;;;;8.58;2.87;;;;;;;13.41;67.50;101761.16;1858618;76;21485;-56
2022/10/24 08:57:52;;;;;;;11.05;3.15;;;;;;;13.46;67.58;101767.59;1862897;76;21054;-55
2022/10/24 09:00:30;;;;;;;5.35;3.40;;;;;;;13.49;67.53;101774.97;1882048;76;21051;-55
2022/10/24 09:03:14;;;;;;;8.05;4.25;;;;;;;13.51;67.60;101768.31;1879273;76;21056;-61
2022/10/24 09:05:43;;;;;;;;;;;;;;;13.56;67.62;101768.16;1852292;76;21050;-61
2022/10/24 09:08:40;;;;;;;5.67;3.42;;;;;;;13.61;67.62;101771.48;1894951;76;20108;-62
2022/10/24 09:11:09;;;;;;;6.30;3.67;;;;;;;13.61;67.60;101771.48;1887464;76;21019;-59
2022/10/24 09:13:38;;;;;;;5.47;2.98;;;;;;;13.62;67.64;101770.12;1886778;76;21042;-60
2022/10/24 09:16:13;;;;;;;5.50;3.30;;;;;;;13.64;67.67;101768.74;1896796;75;21020;-60
2022/10/24 09:18:44;;;;;;;6.17;3.72;;;;;;;13.69;67.71;101770.77;1938911;73;21524;-58
2022/10/24 09:21:15;;;;;;;4.28;2.87;;;;;;;13.75;67.72;101774.52;1926515;74;21132;-58
2022/10/24 09:23:44;;;;;;;5.25;2.83;;;;;;;13.82;67.63;101773.84;1926614;74;21010;-59
2022/10/24 09:26:21;;;;;;;7.90;4.42;;;;;;;13.87;67.55;101778.52;1919026;74;21533;-59
2022/10/24 09:28:57;;;;;;;5.85;3.17;;;;;;;13.90;67.35;101779.24;1914078;75;21107;-55
2022/10/24 09:31:27;;;;;;;4.85;2.98;;;;;;;13.95;67.30;101774.27;1872943;76;21088;-58
2022/10/24 09:33:59;;;;;;;6.05;3.30;;;;;;;13.99;67.26;101771.91;1899493;75;21125;-57
2022/10/24 09:36:29;;;;;;;5.35;3.22;;;;;;;14.06;67.16;101770.76;1860233;76;21148;-55
2022/10/24 09:38:59;;;;;;;6.50;2.80;;;;;;;14.12;67.04;101775.81;1892340;76;21137;-59
2022/10/24 09:41:32;;;;;;;4.85;3.10;;;;;;;14.16;67.01;101781.39;1887064;76;21114;-59
2022/10/24 09:44:03;;;;;;;4.80;2.90;;;;;;;14.19;67.05;101780.44;1892273;76;21125;-58
2022/10/24 09:46:46;;;;;;;5.33;2.70;;;;;;;14.18;66.98;101780.88;1915996;73;21139;-59
2022/10/24 09:49:16;;;;;;;7.85;3.30;;;;;;;14.16;66.92;101784.52;1970784;73;21006;-57
2022/10/24 09:51:51;;;;;;;5.00;2.87;;;;;;;14.09;66.90;101787.40;1971580;73;21050;-56
2022/10/24 09:54:24;;;;;;;6.40;3.65;;;;;;;14.03;66.91;101790.25;1970031;73;21006;-63
2022/10/24 09:57:01;;;;;;;5.12;2.58;;;;;;;13.98;66.87;101793.99;1969694;73;21101;-62
2022/10/24 09:59:48;;;;;;;6.92;3.27;;;;;;;13.88;66.91;101783.73;1970616;73;21058;-58
2022/10/24 10:02:33;;;;;;;6.40;3.37;;;;;;;13.84;67.12;101786.09;1971684;73;21135;-57
2022/10/24 10:05:08;;;;;;;5.58;3.05;;;;;;;13.88;67.21;101786.85;1971301;73;21096;-56
2022/10/24 10:07:40;;;;;;;5.42;2.87;;;;;;;13.93;67.24;101788.88;1969544;73;21457;-59
2022/10/24 10:10:28;;;;;;;5.30;2.85;;;;;;;13.96;67.24;101786.56;1951712;73;21038;-61
2022/10/24 10:13:26;;;;;;;6.90;3.20;;;;;;;13.93;67.30;101780.94;1925947;74;21438;-60
2022/10/24 10:16:00;;;;;;;4.62;2.98;;;;;;;13.90;67.37;101787.19;1942540;73;21102;-52
2022/10/24 10:18:41;;;;;;;8.25;3.25;;;;;;;13.90;67.42;101781.04;1929055;74;21022;-53
2022/10/24 10:21:19;;;;;;;6.95;3.22;;;;;;;13.95;67.42;101783.06;1915417;74;21133;-56
2022/10/24 10:23:53;;;;;;;6.90;3.25;;;;;;;13.96;67.42;101785.24;1917475;73;21033;-54
2022/10/24 10:26:45;;;;;;;8.45;3.30;;;;;;;13.93;67.43;101789.34;1901163;75;21489;-55
2022/10/24 10:29:20;;;;;;;5.53;3.35;;;;;;;13.89;67.47;101785.48;1902528;74;21070;-55
2022/10/24 10:32:00;;;;;;;5.95;3.70;;;;;;;13.88;67.55;101786.85;1902848;75;21029;-54
2022/10/24 10:34:40;;;;;;;6.03;3.80;;;;;;;13.82;67.59;101787.94;1904369;74;21141;-57
2022/10/24 10:37:11;;;;;;;7.87;3.67;;;;;;;13.81;67.49;101780.91;1905159;75;21109;-57
2022/10/24 10:40:04;;;;;;;5.90;2.95;;;;;;;13.77;67.46;101791.20;1905032;74;21036;-58
2022/10/24 10:42:47;;;;;;;5.03;3.22;;;;;;;13.77;67.47;101779.77;1903583;75;21149;-58
2022/10/24 10:45:31;;;;;;;8.55;3.27;;;;;;;13.82;67.44;101785.76;1904663;75;21047;-58
2022/10/24 10:48:11;;;;;;;5.28;3.05;;;;;;;13.85;67.28;101786.52;1851195;76;21453;-59
2022/10/24 10:50:43;;;;;;;10.80;3.37;;;;;;;13.87;67.22;101786.00;1865181;76;21505;-57
2022/10/24 10:53:23;;;;;;;8.55;3.52;;;;;;;13.92;67.16;101782.31;1865043;76;21137;-58
2022/10/24 10:55:58;;;;;;;6.00;2.67;;;;;;;13.94;67.03;101787.94;1853381;76;21204;-57
2022/10/24 10:58:50;;;;;;;8.83;3.60;;;;;;;13.94;67.02;101781.32;1863839;75;21061;-58
2022/10/24 11:01:24;;;;;;;6.95;2.75;;;;;;;13.93;67.01;101770.34;1864076;75;21020;-59
2022/10/24 11:04:08;;;;;;;4.75;2.70;;;;;;;13.89;66.96;101770.91;1845999;77;21160;-58
2022/10/24 11:07:00;;;;;;;5.25;3.40;;;;;;;13.87;66.92;101770.11;1825201;78;21065;-58
2022/10/24 11:09:46;;;;;;;5.12;3.10;;;;;;;13.87;66.87;101766.14;1848324;76;21450;-58
2022/10/24 11:12:26;;;;;;;6.33;3.22;;;;;;;13.92;66.78;101767.75;1884608;76;21043;-58
2022/10/24 11:15:10;;;;;;;7.97;3.55;;;;;;;13.95;66.73;101770.30;1884670;76;21563;-58
2022/10/24 11:17:39;;;;;;;;;;;;;;;14.08;66.69;101774.20;1887180;76;21514;-59
2022/10/24 11:20:27;;;;;;;5.15;2.85;;;;;;;14.20;66.33;101778.17;1843963;77;20119;-54
2022/10/24 11:22:59;;;;;;;5.03;2.98;;;;;;;14.30;66.23;101775.59;1926400;74;21070;-54
2022/10/24 11:25:33;;;;;;;6.92;3.20;;;;;;;14.35;66.18;101775.40;1944559;73;21030;-58
2022/10/24 11:28:13;;;;;;;5.17;2.90;;;;;;;14.41;66.13;101772.53;1971596;73;21573;-59
2022/10/24 11:30:51;;;;;;;5.03;2.62;;;;;;;14.41;66.10;101775.19;1971301;73;21096;-59
2022/10/24 11:33:22;;;;;;;5.80;3.10;;;;;;;14.48;66.13;101772.70;1891387;76;21034;-58
2022/10/24 11:35:57;;;;;;;6.15;2.87;;;;;;;14.54;66.04;101758.34;1857361;75;21562;-58
2022/10/24 11:38:28;;;;;;;7.00;3.35;;;;;;;14.57;66.06;101763.09;1921021;73;21058;-55
2022/10/24 11:40:59;;;;;;;4.03;2.30;;;;;;;14.61;66.13;101760.72;1927088;74;21014;-58
2022/10/24 11:43:37;;;;;;;4.47;2.67;;;;;;;14.58;65.87;101762.16;1926824;74;21018;-58
2022/10/24 11:46:20;;;;;;;3.72;2.60;;;;;;;14.55;65.63;101762.70;1954693;73;21050;-54
2022/10/24 11:48:55;;;;;;;4.75;2.42;;;;;;;14.57;65.55;101759.13;1969415;73;21515;-57
2022/10/24 11:51:26;;;;;;;5.45;2.65;;;;;;;14.71;65.20;101759.03;1967897;73;21066;-58